| time (UTC) | temp F | wind direction | speed knots | gust knots | rain 1hr in | rain 24hr in | rain mn in | humidity % | barometer mb |
| 20260906211556 | 92 | 125 | 6.1 | 13.9 | 0.00 | 0.00 | 0.00 | 33 | 1016.1 |
| 20260906210100 | 90 | 134 | 4.3 | 12.2 | 0.00 | 0.00 | 0.00 | 36 | 1016.3 |
| 20260906204556 | 88 | 89 | 6.1 | 11.3 | 0.00 | 0.00 | 0.00 | 38 | 1016.4 |
| 20260906203102 | 88 | 126 | 7.0 | 10.4 | 0.00 | 0.00 | 0.00 | 38 | 1016.6 |
| 20260906201558 | 87 | 217 | 2.6 | 11.3 | 0.00 | 0.00 | 0.00 | 40 | 1016.9 |
| 20260906200057 | 86 | 54 | 4.3 | 10.4 | 0.00 | 0.00 | 0.00 | 42 | 1017.2 |
| 20260906194559 | 84 | 66 | 4.3 | 9.6 | 0.00 | 0.00 | 0.00 | 44 | 1017.4 |
| 20260906193056 | 84 | 86 | 9.6 | 13.9 | 0.00 | 0.00 | 0.00 | 46 | 1017.6 |
| 20260906191555 | 83 | 62 | 5.2 | 13.0 | 0.00 | 0.00 | 0.00 | 47 | 1017.9 |
| 20260906184549 | 82 | 104 | 4.3 | 10.4 | 0.00 | 0.00 | 0.00 | 49 | 1018.4 |
| 20260906183054 | 82 | 88 | 5.2 | 11.3 | 0.00 | 0.00 | 0.00 | 49 | 1018.9 |
| 20260906181555 | 83 | 42 | 1.7 | 5.2 | 0.00 | 0.00 | 0.00 | 49 | 1019.1 |
| 20260906180056 | 81 | 311 | 0.9 | 5.2 | 0.00 | 0.00 | 0.00 | 51 | 1019.3 |
| 20260906174552 | 79 | 265 | 1.7 | 7.8 | 0.00 | 0.00 | 0.00 | 54 | 1019.7 |
| 20260906173056 | 79 | 306 | 2.6 | 7.0 | 0.00 | 0.00 | 0.00 | 54 | 1020.0 |
| 20260906171559 | 77 | 5 | 3.5 | 7.0 | 0.00 | 0.00 | 0.00 | 58 | 1020.2 |
| 20260906170100 | 75 | 346 | 2.6 | 7.8 | 0.00 | 0.00 | 0.00 | 60 | 1020.2 |
| 20260906164555 | 74 | 0 | 3.5 | 8.7 | 0.00 | 0.00 | 0.00 | 63 | 1020.2 |
| 20260906163049 | 73 | 13 | 2.6 | 7.8 | 0.00 | 0.00 | 0.00 | 66 | 1020.1 |
| 20260906161546 | 71 | 294 | 4.3 | 8.7 | 0.00 | 0.00 | 0.00 | 68 | 1020.3 |
| 20260906160051 | 70 | 300 | 5.2 | 8.7 | 0.00 | 0.00 | 0.00 | 71 | 1020.3 |
| 20260906154546 | 69 | 269 | 2.6 | 7.8 | 0.00 | 0.00 | 0.00 | 74 | 1020.4 |
| 20260906153047 | 67 | 5 | 2.6 | 8.7 | 0.00 | 0.00 | 0.00 | 77 | 1020.2 |
| 20260906151555 | 66 | 304 | 5.2 | 9.6 | 0.00 | 0.00 | 0.00 | 79 | 1020.2 |
| 20260906150052 | 65 | 293 | 6.1 | 10.4 | 0.00 | 0.00 | 0.00 | 81 | 1020.3 |
| 20260906144550 | 65 | 334 | 4.3 | 8.7 | 0.00 | 0.00 | 0.00 | 82 | 1020.4 |
| 20260906143047 | 64 | 346 | 2.6 | 7.0 | 0.00 | 0.00 | 0.00 | 84 | 1020.5 |
| 20260906141555 | 63 | 13 | 3.5 | 7.8 | 0.00 | 0.00 | 0.00 | 87 | 1020.3 |
| 20260906140054 | 62 | 306 | 2.6 | 7.0 | 0.00 | 0.00 | 0.00 | 90 | 1020.3 |
| 20260906134600 | 61 | 352 | 4.3 | 7.8 | 0.00 | 0.00 | 0.00 | 91 | 1020.3 |
| 20260906133054 | 60 | 337 | 2.6 | 6.1 | 0.00 | 0.00 | 0.00 | 91 | 1020.1 |
| 20260906131554 | 59 | 320 | 4.3 | 7.0 | 0.00 | 0.00 | 0.00 | 91 | 1019.8 |
| 20260906130130 | 59 | 273 | 3.5 | 6.1 | 0.00 | 0.00 | 0.00 | 90 | 1019.7 |
| 20260906124552 | 59 | 306 | 2.6 | 7.0 | 0.00 | 0.00 | 0.00 | 90 | 1019.6 |
| 20260906123048 | 59 | 327 | 5.2 | 7.8 | 0.00 | 0.00 | 0.00 | 90 | 1019.4 |
| 20260906121607 | 59 | 296 | 6.1 | 9.6 | 0.00 | 0.00 | 0.00 | 89 | 1019.5 |
| 20260906120104 | 59 | 285 | 4.3 | 7.0 | 0.00 | 0.00 | 0.00 | 88 | 1019.6 |
| 20260906114547 | 59 | 263 | 4.3 | 6.1 | 0.00 | 0.00 | 0.00 | 87 | 1019.5 |
| 20260906113057 | 60 | 308 | 3.5 | 5.2 | 0.00 | 0.00 | 0.00 | 87 | 1019.4 |
| 20260906111553 | 61 | 313 | 2.6 | 7.0 | 0.00 | 0.00 | 0.00 | 87 | 1019.1 |
| 20260906110049 | 61 | 331 | 1.7 | 4.3 | 0.00 | 0.00 | 0.00 | 87 | 1019.1 |
| 20260906104549 | 61 | 46 | 3.5 | 7.8 | 0.00 | 0.00 | 0.00 | 87 | 1019.0 |
| 20260906103059 | 62 | 35 | 4.3 | 7.8 | 0.00 | 0.00 | 0.00 | 86 | 1019.1 |
| 20260906101557 | 62 | 34 | 4.3 | 7.8 | 0.00 | 0.00 | 0.00 | 85 | 1019.4 |
| 20260906100052 | 62 | 34 | 4.3 | 7.8 | 0.00 | 0.00 | 0.00 | 85 | 1019.3 |
| 20260906094550 | 62 | 28 | 2.6 | 9.6 | 0.00 | 0.00 | 0.00 | 84 | 1019.1 |
| 20260906093057 | 63 | 49 | 7.0 | 9.6 | 0.00 | 0.00 | 0.00 | 84 | 1018.9 |
| 20260906091550 | 63 | 59 | 5.2 | 11.3 | 0.00 | 0.00 | 0.00 | 85 | 1019.1 |
| 20260906090050 | 63 | 63 | 7.0 | 13.0 | 0.00 | 0.00 | 0.00 | 84 | 1019.0 |
| 20260906084556 | 63 | 34 | 9.6 | 13.9 | 0.00 | 0.00 | 0.00 | 83 | 1018.8 |
| 20260906083054 | 64 | 22 | 9.6 | 12.2 | 0.00 | 0.00 | 0.00 | 82 | 1018.5 |
| 20260906081549 | 65 | 17 | 8.7 | 11.3 | 0.00 | 0.00 | 0.00 | 80 | 1018.6 |
| 20260906080048 | 65 | 352 | 6.1 | 10.4 | 0.00 | 0.00 | 0.00 | 76 | 1018.9 |
| 20260906074547 | 66 | 355 | 10.4 | 13.0 | 0.00 | 0.00 | 0.00 | 74 | 1018.6 |
| 20260906073055 | 67 | 333 | 8.7 | 13.0 | 0.00 | 0.00 | 0.00 | 71 | 1018.8 |
| 20260906071548 | 67 | 355 | 7.8 | 10.4 | 0.00 | 0.00 | 0.00 | 68 | 1018.9 |
| 20260906070240 | 68 | 20 | 7.0 | 8.7 | 0.00 | 0.00 | 0.00 | 68 | 1018.9 |
| 20260906070055 | 68 | 20 | 7.0 | 8.7 | 0.00 | 0.00 | 0.00 | 68 | 1018.9 |
| 20260906064550 | 68 | 5 | 6.1 | 9.6 | 0.00 | 0.00 | 0.00 | 69 | 1018.4 |
| 20260906063052 | 69 | 360 | 4.3 | 11.3 | 0.00 | 0.00 | 0.00 | 64 | 1018.6 |
| 20260906061547 | 69 | 298 | 7.0 | 12.2 | 0.00 | 0.00 | 0.00 | 61 | 1018.5 |
| 20260906054549 | 69 | 275 | 7.0 | 10.4 | 0.00 | 0.00 | 0.00 | 60 | 1018.8 |
| 20260906053057 | 70 | 268 | 7.0 | 9.6 | 0.00 | 0.00 | 0.00 | 59 | 1018.8 |
| 20260906051605 | 70 | 331 | 2.6 | 7.0 | 0.00 | 0.00 | 0.00 | 60 | 1018.2 |
| 20260906050056 | 70 | 58 | 2.6 | 5.2 | 0.00 | 0.00 | 0.00 | 58 | 1018.2 |
| 20260906044550 | 72 | 62 | 5.2 | 10.4 | 0.00 | 0.00 | 0.00 | 56 | 1018.2 |
| 20260906043056 | 73 | 32 | 7.8 | 12.2 | 0.00 | 0.00 | 0.00 | 55 | 1018.2 |
| 20260906041555 | 73 | 19 | 6.1 | 11.3 | 0.00 | 0.00 | 0.00 | 55 | 1018.2 |
| 20260906040051 | 74 | 49 | 7.8 | 10.4 | 0.00 | 0.00 | 0.00 | 56 | 1018.2 |
| 20260906034603 | 74 | 53 | 8.7 | 11.3 | 0.00 | 0.00 | 0.00 | 54 | 1018.0 |
| 20260906033056 | 75 | 9 | 7.0 | 10.4 | 0.00 | 0.00 | 0.00 | 48 | 1017.7 |
| 20260906031555 | 76 | 5 | 7.0 | 12.2 | 0.00 | 0.00 | 0.00 | 45 | 1017.7 |
| 20260906030057 | 77 | 348 | 10.4 | 13.9 | 0.00 | 0.00 | 0.00 | 43 | 1017.5 |
| 20260906024553 | 78 | 9 | 8.7 | 13.9 | 0.00 | 0.00 | 0.00 | 42 | 1017.2 |
| 20260906023103 | 79 | 319 | 8.7 | 14.8 | 0.00 | 0.00 | 0.00 | 39 | 1016.8 |
| 20260906021557 | 81 | 300 | 7.8 | 15.6 | 0.00 | 0.00 | 0.00 | 32 | 1016.6 |
| 20260906020052 | 82 | 319 | 11.3 | 15.6 | 0.00 | 0.00 | 0.00 | 30 | 1016.2 |
| 20260906014605 | 83 | 312 | 10.4 | 14.8 | 0.00 | 0.00 | 0.00 | 31 | 1016.2 |
| 20260906013052 | 85 | 19 | 4.3 | 7.8 | 0.00 | 0.00 | 0.00 | 31 | 1016.0 |
| 20260906011606 | 87 | 317 | 5.2 | 8.7 | 0.00 | 0.00 | 0.00 | 28 | 1016.0 |
| 20260906010049 | 89 | 338 | 4.3 | 7.8 | 0.00 | 0.00 | 0.00 | 26 | 1016.0 |
| 20260906004554 | 91 | 305 | 4.3 | 8.7 | 0.00 | 0.00 | 0.00 | 25 | 1016.0 |
| 20260906003050 | 92 | 316 | 3.5 | 7.0 | 0.00 | 0.00 | 0.00 | 23 | 1016.0 |
| 20260906001557 | 93 | 252 | 0.9 | 5.2 | 0.00 | 0.00 | 0.00 | 24 | 1015.9 |
| 20260906000054 | 92 | 82 | 2.6 | 8.7 | 0.00 | 0.00 | 0.00 | 24 | 1015.8 |
| 20260905234553 | 92 | 106 | 6.1 | 9.6 | 0.00 | 0.00 | 0.00 | 25 | 1015.8 |
| 20260905233047 | 93 | 84 | 7.0 | 10.4 | 0.00 | 0.00 | 0.00 | 24 | 1015.8 |
| 20260905231547 | 93 | 63 | 1.7 | 10.4 | 0.00 | 0.00 | 0.00 | 23 | 1015.9 |
| 20260905230053 | 93 | 117 | 2.6 | 13.0 | 0.00 | 0.00 | 0.00 | 23 | 1015.8 |
| 20260905224545 | 93 | 78 | 6.1 | 10.4 | 0.00 | 0.00 | 0.00 | 25 | 1015.7 |
| 20260905223056 | 92 | 63 | 5.2 | 8.7 | 0.00 | 0.00 | 0.00 | 24 | 1015.8 |
| 20260905221548 | 92 | 85 | 5.2 | 7.8 | 0.00 | 0.00 | 0.00 | 23 | 1015.9 |
| 20260905220058 | 93 | 71 | 3.5 | 13.9 | 0.00 | 0.00 | 0.00 | 23 | 1016.0 |
| 20260905214550 | 93 | 57 | 7.8 | 14.8 | 0.00 | 0.00 | 0.00 | 22 | 1016.0 |
| 20260905213048 | 93 | 35 | 8.7 | 13.9 | 0.00 | 0.00 | 0.00 | 23 | 1016.2 |